sensor_id;sensor_type;location;lat;lon;timestamp;temperature;humidity
31379;DHT22;61664;48.112;11.662;2022-07-23T00:01:48;25.90;49.50
31379;DHT22;61664;48.112;11.662;2022-07-23T00:04:15;25.90;49.30
31379;DHT22;61664;48.112;11.662;2022-07-23T00:06:42;26.00;49.20
31379;DHT22;61664;48.112;11.662;2022-07-23T00:09:09;26.00;49.20
31379;DHT22;61664;48.112;11.662;2022-07-23T00:11:36;26.10;49.40
31379;DHT22;61664;48.112;11.662;2022-07-23T00:14:03;26.00;49.30
31379;DHT22;61664;48.112;11.662;2022-07-23T00:16:30;26.00;49.20
31379;DHT22;61664;48.112;11.662;2022-07-23T00:18:57;26.00;49.00
31379;DHT22;61664;48.112;11.662;2022-07-23T00:21:24;26.00;49.00
31379;DHT22;61664;48.112;11.662;2022-07-23T00:23:51;26.00;49.10
31379;DHT22;61664;48.112;11.662;2022-07-23T00:26:18;26.00;49.00
31379;DHT22;61664;48.112;11.662;2022-07-23T00:28:45;26.10;49.20
31379;DHT22;61664;48.112;11.662;2022-07-23T00:31:12;26.10;49.10
31379;DHT22;61664;48.112;11.662;2022-07-23T00:33:39;26.10;49.10
31379;DHT22;61664;48.112;11.662;2022-07-23T00:36:06;26.00;49.00
31379;DHT22;61664;48.112;11.662;2022-07-23T00:38:33;26.00;48.70
31379;DHT22;61664;48.112;11.662;2022-07-23T00:41:00;26.00;48.70
31379;DHT22;61664;48.112;11.662;2022-07-23T00:43:27;26.00;48.70
31379;DHT22;61664;48.112;11.662;2022-07-23T00:45:54;26.00;48.40
31379;DHT22;61664;48.112;11.662;2022-07-23T00:48:21;26.10;48.20
31379;DHT22;61664;48.112;11.662;2022-07-23T00:50:48;26.10;48.00
31379;DHT22;61664;48.112;11.662;2022-07-23T00:53:15;26.10;47.90
31379;DHT22;61664;48.112;11.662;2022-07-23T00:55:42;26.10;47.80
31379;DHT22;61664;48.112;11.662;2022-07-23T00:58:09;26.20;47.80
31379;DHT22;61664;48.112;11.662;2022-07-23T01:00:38;26.20;47.80
31379;DHT22;61664;48.112;11.662;2022-07-23T01:03:05;26.20;47.90
31379;DHT22;61664;48.112;11.662;2022-07-23T01:05:32;26.30;48.10
31379;DHT22;61664;48.112;11.662;2022-07-23T01:07:59;26.30;48.20
31379;DHT22;61664;48.112;11.662;2022-07-23T01:10:26;26.20;48.10
31379;DHT22;61664;48.112;11.662;2022-07-23T01:12:59;26.20;48.30
31379;DHT22;61664;48.112;11.662;2022-07-23T01:15:29;26.20;48.40
31379;DHT22;61664;48.112;11.662;2022-07-23T01:17:56;26.20;48.60
31379;DHT22;61664;48.112;11.662;2022-07-23T01:20:23;26.10;48.70
31379;DHT22;61664;48.112;11.662;2022-07-23T01:22:51;26.10;48.90
31379;DHT22;61664;48.112;11.662;2022-07-23T01:25:20;26.10;49.10
31379;DHT22;61664;48.112;11.662;2022-07-23T01:27:47;26.00;49.10
31379;DHT22;61664;48.112;11.662;2022-07-23T01:30:15;26.10;49.10
31379;DHT22;61664;48.112;11.662;2022-07-23T01:32:42;26.00;48.70
31379;DHT22;61664;48.112;11.662;2022-07-23T01:35:09;26.00;47.60
31379;DHT22;61664;48.112;11.662;2022-07-23T01:37:37;26.00;47.20
31379;DHT22;61664;48.112;11.662;2022-07-23T01:40:05;26.00;46.80
31379;DHT22;61664;48.112;11.662;2022-07-23T01:42:33;25.90;46.30
31379;DHT22;61664;48.112;11.662;2022-07-23T01:45:00;25.90;45.80
31379;DHT22;61664;48.112;11.662;2022-07-23T01:47:27;25.80;45.70
31379;DHT22;61664;48.112;11.662;2022-07-23T01:49:54;25.60;45.50
31379;DHT22;61664;48.112;11.662;2022-07-23T01:52:21;25.60;45.50
31379;DHT22;61664;48.112;11.662;2022-07-23T01:54:48;25.50;45.60
31379;DHT22;61664;48.112;11.662;2022-07-23T01:57:15;25.40;45.80
31379;DHT22;61664;48.112;11.662;2022-07-23T01:59:42;25.40;46.00
31379;DHT22;61664;48.112;11.662;2022-07-23T02:02:09;25.30;46.20
31379;DHT22;61664;48.112;11.662;2022-07-23T02:04:36;25.30;46.50
31379;DHT22;61664;48.112;11.662;2022-07-23T02:07:04;25.20;46.60
31379;DHT22;61664;48.112;11.662;2022-07-23T02:09:32;25.20;46.80
31379;DHT22;61664;48.112;11.662;2022-07-23T02:11:59;25.10;46.80
31379;DHT22;61664;48.112;11.662;2022-07-23T02:14:26;25.00;46.80
31379;DHT22;61664;48.112;11.662;2022-07-23T02:16:53;25.00;47.00
31379;DHT22;61664;48.112;11.662;2022-07-23T02:19:20;24.90;47.30
31379;DHT22;61664;48.112;11.662;2022-07-23T02:21:48;24.90;47.60
31379;DHT22;61664;48.112;11.662;2022-07-23T02:24:15;24.80;48.00
31379;DHT22;61664;48.112;11.662;2022-07-23T02:26:43;24.80;48.60
31379;DHT22;61664;48.112;11.662;2022-07-23T02:29:10;24.70;49.30
31379;DHT22;61664;48.112;11.662;2022-07-23T02:31:37;24.70;49.30
31379;DHT22;61664;48.112;11.662;2022-07-23T02:34:05;24.60;49.50
31379;DHT22;61664;48.112;11.662;2022-07-23T02:36:32;24.50;49.50
31379;DHT22;61664;48.112;11.662;2022-07-23T02:38:59;24.30;49.50
31379;DHT22;61664;48.112;11.662;2022-07-23T02:41:27;24.30;49.80
31379;DHT22;61664;48.112;11.662;2022-07-23T02:43:54;24.20;50.30
31379;DHT22;61664;48.112;11.662;2022-07-23T02:46:21;24.10;50.80
31379;DHT22;61664;48.112;11.662;2022-07-23T02:48:48;24.10;51.30
31379;DHT22;61664;48.112;11.662;2022-07-23T02:51:15;24.00;51.40
31379;DHT22;61664;48.112;11.662;2022-07-23T02:53:42;24.00;51.70
31379;DHT22;61664;48.112;11.662;2022-07-23T02:56:09;23.90;51.80
31379;DHT22;61664;48.112;11.662;2022-07-23T02:58:36;23.80;52.00
31379;DHT22;61664;48.112;11.662;2022-07-23T03:01:03;23.80;52.20
31379;DHT22;61664;48.112;11.662;2022-07-23T03:03:30;23.80;52.20
31379;DHT22;61664;48.112;11.662;2022-07-23T03:05:57;23.70;52.20
31379;DHT22;61664;48.112;11.662;2022-07-23T03:08:24;23.60;52.50
31379;DHT22;61664;48.112;11.662;2022-07-23T03:10:51;23.50;53.00
31379;DHT22;61664;48.112;11.662;2022-07-23T03:13:19;23.30;53.90
31379;DHT22;61664;48.112;11.662;2022-07-23T03:15:46;23.10;54.40
31379;DHT22;61664;48.112;11.662;2022-07-23T03:18:13;22.80;55.00
31379;DHT22;61664;48.112;11.662;2022-07-23T03:20:40;22.60;55.90
31379;DHT22;61664;48.112;11.662;2022-07-23T03:23:07;22.30;57.00
31379;DHT22;61664;48.112;11.662;2022-07-23T03:25:34;22.20;58.40
31379;DHT22;61664;48.112;11.662;2022-07-23T03:28:01;22.00;59.90
31379;DHT22;61664;48.112;11.662;2022-07-23T03:30:28;21.90;61.00
31379;DHT22;61664;48.112;11.662;2022-07-23T03:32:55;21.80;62.30
31379;DHT22;61664;48.112;11.662;2022-07-23T03:35:22;21.60;63.10
31379;DHT22;61664;48.112;11.662;2022-07-23T03:37:48;21.60;64.10
31379;DHT22;61664;48.112;11.662;2022-07-23T03:40:16;21.50;64.70
31379;DHT22;61664;48.112;11.662;2022-07-23T03:42:43;21.40;65.30
31379;DHT22;61664;48.112;11.662;2022-07-23T03:45:10;21.40;66.10
31379;DHT22;61664;48.112;11.662;2022-07-23T03:47:37;21.40;66.20
31379;DHT22;61664;48.112;11.662;2022-07-23T03:50:06;21.40;66.90
31379;DHT22;61664;48.112;11.662;2022-07-23T03:52:33;21.30;67.10
31379;DHT22;61664;48.112;11.662;2022-07-23T03:55:00;21.30;67.40
31379;DHT22;61664;48.112;11.662;2022-07-23T03:57:28;21.30;67.60
31379;DHT22;61664;48.112;11.662;2022-07-23T03:59:55;21.30;67.60
31379;DHT22;61664;48.112;11.662;2022-07-23T04:02:22;21.30;67.90
31379;DHT22;61664;48.112;11.662;2022-07-23T04:04:49;21.20;68.10
31379;DHT22;61664;48.112;11.662;2022-07-23T04:07:16;21.20;68.70
31379;DHT22;61664;48.112;11.662;2022-07-23T04:09:44;21.20;68.90
31379;DHT22;61664;48.112;11.662;2022-07-23T04:12:12;21.20;69.60
31379;DHT22;61664;48.112;11.662;2022-07-23T04:14:39;21.20;70.10
31379;DHT22;61664;48.112;11.662;2022-07-23T04:17:06;21.20;70.50
31379;DHT22;61664;48.112;11.662;2022-07-23T04:19:33;21.30;70.90
31379;DHT22;61664;48.112;11.662;2022-07-23T04:22:02;21.30;71.00
31379;DHT22;61664;48.112;11.662;2022-07-23T04:24:29;21.30;71.30
31379;DHT22;61664;48.112;11.662;2022-07-23T04:26:55;21.40;71.50
31379;DHT22;61664;48.112;11.662;2022-07-23T04:29:22;21.40;71.50
31379;DHT22;61664;48.112;11.662;2022-07-23T04:31:50;21.50;71.40
31379;DHT22;61664;48.112;11.662;2022-07-23T04:34:17;21.50;71.70
31379;DHT22;61664;48.112;11.662;2022-07-23T04:36:44;21.60;72.10
31379;DHT22;61664;48.112;11.662;2022-07-23T04:39:11;21.60;72.60
31379;DHT22;61664;48.112;11.662;2022-07-23T04:41:38;21.70;72.30
31379;DHT22;61664;48.112;11.662;2022-07-23T04:44:05;21.80;72.30
31379;DHT22;61664;48.112;11.662;2022-07-23T04:46:32;21.80;72.60
31379;DHT22;61664;48.112;11.662;2022-07-23T04:49:00;21.80;72.40
31379;DHT22;61664;48.112;11.662;2022-07-23T04:51:27;21.90;72.30
31379;DHT22;61664;48.112;11.662;2022-07-23T04:53:55;21.90;71.90
31379;DHT22;61664;48.112;11.662;2022-07-23T04:56:22;21.90;71.60
31379;DHT22;61664;48.112;11.662;2022-07-23T04:58:52;21.90;71.80
31379;DHT22;61664;48.112;11.662;2022-07-23T05:01:19;21.90;71.50
31379;DHT22;61664;48.112;11.662;2022-07-23T05:03:46;22.00;71.90
31379;DHT22;61664;48.112;11.662;2022-07-23T05:06:15;21.90;71.70
31379;DHT22;61664;48.112;11.662;2022-07-23T05:08:42;22.00;71.60
31379;DHT22;61664;48.112;11.662;2022-07-23T05:11:09;22.00;71.90
31379;DHT22;61664;48.112;11.662;2022-07-23T05:13:36;22.00;71.80
31379;DHT22;61664;48.112;11.662;2022-07-23T05:16:03;22.00;72.00
31379;DHT22;61664;48.112;11.662;2022-07-23T05:18:30;22.00;72.20
31379;DHT22;61664;48.112;11.662;2022-07-23T05:20:57;22.10;72.20
31379;DHT22;61664;48.112;11.662;2022-07-23T05:23:24;22.10;71.80
31379;DHT22;61664;48.112;11.662;2022-07-23T05:25:51;22.20;71.80
31379;DHT22;61664;48.112;11.662;2022-07-23T05:28:17;22.20;71.90
31379;DHT22;61664;48.112;11.662;2022-07-23T05:30:48;22.20;72.00
31379;DHT22;61664;48.112;11.662;2022-07-23T05:33:17;22.30;72.00
31379;DHT22;61664;48.112;11.662;2022-07-23T05:35:45;22.40;72.30
31379;DHT22;61664;48.112;11.662;2022-07-23T05:38:12;22.40;72.00
31379;DHT22;61664;48.112;11.662;2022-07-23T05:40:39;22.40;71.60
31379;DHT22;61664;48.112;11.662;2022-07-23T05:43:06;22.50;71.40
31379;DHT22;61664;48.112;11.662;2022-07-23T05:45:33;22.50;71.20
31379;DHT22;61664;48.112;11.662;2022-07-23T05:47:59;22.60;71.20
31379;DHT22;61664;48.112;11.662;2022-07-23T05:50:27;22.60;71.10
31379;DHT22;61664;48.112;11.662;2022-07-23T05:52:53;22.60;71.00
31379;DHT22;61664;48.112;11.662;2022-07-23T05:55:20;22.60;70.90
31379;DHT22;61664;48.112;11.662;2022-07-23T05:57:47;22.60;71.10
31379;DHT22;61664;48.112;11.662;2022-07-23T06:00:14;22.60;71.20
31379;DHT22;61664;48.112;11.662;2022-07-23T06:02:41;22.70;71.10
31379;DHT22;61664;48.112;11.662;2022-07-23T06:05:08;22.70;71.20
31379;DHT22;61664;48.112;11.662;2022-07-23T06:07:35;22.70;71.30
31379;DHT22;61664;48.112;11.662;2022-07-23T06:10:03;22.80;71.40
31379;DHT22;61664;48.112;11.662;2022-07-23T06:12:31;22.80;71.20
31379;DHT22;61664;48.112;11.662;2022-07-23T06:14:58;22.90;71.20
31379;DHT22;61664;48.112;11.662;2022-07-23T06:17:25;22.90;71.20
31379;DHT22;61664;48.112;11.662;2022-07-23T06:19:53;23.00;71.50
31379;DHT22;61664;48.112;11.662;2022-07-23T06:22:21;23.00;70.90
31379;DHT22;61664;48.112;11.662;2022-07-23T06:24:49;23.00;70.80
31379;DHT22;61664;48.112;11.662;2022-07-23T06:27:18;23.10;70.70
31379;DHT22;61664;48.112;11.662;2022-07-23T06:29:51;23.00;70.90
31379;DHT22;61664;48.112;11.662;2022-07-23T06:32:19;23.00;71.40
31379;DHT22;61664;48.112;11.662;2022-07-23T06:34:46;23.00;71.30
31379;DHT22;61664;48.112;11.662;2022-07-23T06:37:14;22.90;71.60
31379;DHT22;61664;48.112;11.662;2022-07-23T06:39:43;22.90;72.10
31379;DHT22;61664;48.112;11.662;2022-07-23T06:42:11;22.80;72.00
31379;DHT22;61664;48.112;11.662;2022-07-23T06:44:38;22.80;72.30
31379;DHT22;61664;48.112;11.662;2022-07-23T06:47:05;22.70;72.30
31379;DHT22;61664;48.112;11.662;2022-07-23T06:49:32;22.70;72.70
31379;DHT22;61664;48.112;11.662;2022-07-23T06:51:59;22.70;72.90
31379;DHT22;61664;48.112;11.662;2022-07-23T06:54:26;22.60;72.90
31379;DHT22;61664;48.112;11.662;2022-07-23T06:56:53;22.70;73.10
31379;DHT22;61664;48.112;11.662;2022-07-23T06:59:20;22.70;73.10
31379;DHT22;61664;48.112;11.662;2022-07-23T07:01:47;22.70;73.40
31379;DHT22;61664;48.112;11.662;2022-07-23T07:04:14;22.70;73.60
31379;DHT22;61664;48.112;11.662;2022-07-23T07:06:41;22.80;73.60
31379;DHT22;61664;48.112;11.662;2022-07-23T07:09:08;22.90;73.60
31379;DHT22;61664;48.112;11.662;2022-07-23T07:11:38;22.90;73.40
31379;DHT22;61664;48.112;11.662;2022-07-23T07:14:04;23.00;73.60
31379;DHT22;61664;48.112;11.662;2022-07-23T07:16:31;23.10;73.50
31379;DHT22;61664;48.112;11.662;2022-07-23T07:18:59;23.20;73.70
31379;DHT22;61664;48.112;11.662;2022-07-23T07:21:26;23.30;73.80
31379;DHT22;61664;48.112;11.662;2022-07-23T07:23:53;23.30;73.80
31379;DHT22;61664;48.112;11.662;2022-07-23T07:26:20;23.40;73.80
31379;DHT22;61664;48.112;11.662;2022-07-23T07:28:47;23.50;73.60
31379;DHT22;61664;48.112;11.662;2022-07-23T07:31:14;23.60;73.50
31379;DHT22;61664;48.112;11.662;2022-07-23T07:33:41;23.70;73.50
31379;DHT22;61664;48.112;11.662;2022-07-23T07:36:08;23.80;73.50
31379;DHT22;61664;48.112;11.662;2022-07-23T07:38:35;23.90;73.40
31379;DHT22;61664;48.112;11.662;2022-07-23T07:41:02;24.00;73.40
31379;DHT22;61664;48.112;11.662;2022-07-23T07:43:29;24.10;73.10
31379;DHT22;61664;48.112;11.662;2022-07-23T07:45:56;24.10;72.80
31379;DHT22;61664;48.112;11.662;2022-07-23T07:48:23;24.10;72.50
31379;DHT22;61664;48.112;11.662;2022-07-23T07:50:51;24.20;72.30
31379;DHT22;61664;48.112;11.662;2022-07-23T07:53:18;24.20;72.10
31379;DHT22;61664;48.112;11.662;2022-07-23T07:55:45;24.20;71.90
31379;DHT22;61664;48.112;11.662;2022-07-23T07:58:17;24.10;71.90
31379;DHT22;61664;48.112;11.662;2022-07-23T08:00:44;24.10;72.00
31379;DHT22;61664;48.112;11.662;2022-07-23T08:03:11;24.10;72.10
31379;DHT22;61664;48.112;11.662;2022-07-23T08:05:39;24.10;72.30
31379;DHT22;61664;48.112;11.662;2022-07-23T08:08:06;24.10;72.40
31379;DHT22;61664;48.112;11.662;2022-07-23T08:10:33;24.10;72.40
31379;DHT22;61664;48.112;11.662;2022-07-23T08:13:00;24.10;72.50
31379;DHT22;61664;48.112;11.662;2022-07-23T08:15:29;24.10;72.60
31379;DHT22;61664;48.112;11.662;2022-07-23T08:17:58;24.20;72.60
31379;DHT22;61664;48.112;11.662;2022-07-23T08:20:26;24.10;72.60
31379;DHT22;61664;48.112;11.662;2022-07-23T08:23:04;24.20;72.80
31379;DHT22;61664;48.112;11.662;2022-07-23T08:25:38;24.20;72.60
31379;DHT22;61664;48.112;11.662;2022-07-23T08:28:10;24.30;72.60
31379;DHT22;61664;48.112;11.662;2022-07-23T08:30:40;24.30;72.50
31379;DHT22;61664;48.112;11.662;2022-07-23T08:33:09;24.30;72.60
31379;DHT22;61664;48.112;11.662;2022-07-23T08:36:00;24.40;72.60
31379;DHT22;61664;48.112;11.662;2022-07-23T08:38:30;24.40;72.60
31379;DHT22;61664;48.112;11.662;2022-07-23T08:40:58;24.40;72.30
31379;DHT22;61664;48.112;11.662;2022-07-23T08:43:28;24.50;72.20
31379;DHT22;61664;48.112;11.662;2022-07-23T08:45:58;24.40;72.00
31379;DHT22;61664;48.112;11.662;2022-07-23T08:48:30;24.50;72.10
31379;DHT22;61664;48.112;11.662;2022-07-23T08:51:01;24.50;72.00
31379;DHT22;61664;48.112;11.662;2022-07-23T08:53:31;24.50;72.10
31379;DHT22;61664;48.112;11.662;2022-07-23T08:56:02;24.60;72.40
31379;DHT22;61664;48.112;11.662;2022-07-23T08:58:31;24.60;71.90
31379;DHT22;61664;48.112;11.662;2022-07-23T09:00:59;24.70;72.50
31379;DHT22;61664;48.112;11.662;2022-07-23T09:06:06;24.80;71.00
31379;DHT22;61664;48.112;11.662;2022-07-23T09:08:34;24.90;71.30
31379;DHT22;61664;48.112;11.662;2022-07-23T09:11:07;24.90;71.40
31379;DHT22;61664;48.112;11.662;2022-07-23T09:13:48;24.90;71.20
31379;DHT22;61664;48.112;11.662;2022-07-23T09:16:27;24.90;68.50
31379;DHT22;61664;48.112;11.662;2022-07-23T09:21:30;24.90;71.30
31379;DHT22;61664;48.112;11.662;2022-07-23T09:24:10;25.00;70.80
31379;DHT22;61664;48.112;11.662;2022-07-23T09:26:46;25.00;69.00
31379;DHT22;61664;48.112;11.662;2022-07-23T09:29:21;25.10;71.10
31379;DHT22;61664;48.112;11.662;2022-07-23T09:31:53;25.20;70.00
31379;DHT22;61664;48.112;11.662;2022-07-23T09:34:28;25.30;72.30
31379;DHT22;61664;48.112;11.662;2022-07-23T09:37:14;25.40;72.00
31379;DHT22;61664;48.112;11.662;2022-07-23T09:39:45;25.50;69.90
31379;DHT22;61664;48.112;11.662;2022-07-23T09:44:52;26.10;73.00
31379;DHT22;61664;48.112;11.662;2022-07-23T09:47:23;26.40;73.90
31379;DHT22;61664;48.112;11.662;2022-07-23T09:52:33;27.30;69.30
31379;DHT22;61664;48.112;11.662;2022-07-23T09:55:31;27.60;70.20
31379;DHT22;61664;48.112;11.662;2022-07-23T09:58:03;27.90;65.40
31379;DHT22;61664;48.112;11.662;2022-07-23T10:00:31;28.00;69.20
31379;DHT22;61664;48.112;11.662;2022-07-23T10:02:59;28.30;69.20
31379;DHT22;61664;48.112;11.662;2022-07-23T10:05:29;28.60;69.40
31379;DHT22;61664;48.112;11.662;2022-07-23T10:07:57;29.00;69.60
31379;DHT22;61664;48.112;11.662;2022-07-23T10:10:26;29.40;69.60
31379;DHT22;61664;48.112;11.662;2022-07-23T10:12:55;30.00;69.30
31379;DHT22;61664;48.112;11.662;2022-07-23T10:15:29;30.60;69.50
31379;DHT22;61664;48.112;11.662;2022-07-23T10:17:56;31.20;67.70
31379;DHT22;61664;48.112;11.662;2022-07-23T10:20:24;31.70;66.60
31379;DHT22;61664;48.112;11.662;2022-07-23T10:23:09;32.20;64.60
31379;DHT22;61664;48.112;11.662;2022-07-23T10:26:09;32.70;60.10
31379;DHT22;61664;48.112;11.662;2022-07-23T10:32:02;33.60;58.50
31379;DHT22;61664;48.112;11.662;2022-07-23T10:35:03;34.00;57.30
31379;DHT22;61664;48.112;11.662;2022-07-23T10:37:49;34.40;58.90
31379;DHT22;61664;48.112;11.662;2022-07-23T10:40:20;34.70;58.20
31379;DHT22;61664;48.112;11.662;2022-07-23T10:42:50;35.00;57.30
31379;DHT22;61664;48.112;11.662;2022-07-23T10:45:26;35.10;55.60
31379;DHT22;61664;48.112;11.662;2022-07-23T10:47:55;34.90;53.30
31379;DHT22;61664;48.112;11.662;2022-07-23T10:50:37;34.60;54.00
31379;DHT22;61664;48.112;11.662;2022-07-23T10:53:14;34.20;52.40
31379;DHT22;61664;48.112;11.662;2022-07-23T10:55:46;33.80;49.50
31379;DHT22;61664;48.112;11.662;2022-07-23T10:58:22;33.30;53.20
31379;DHT22;61664;48.112;11.662;2022-07-23T11:01:32;32.80;52.70
31379;DHT22;61664;48.112;11.662;2022-07-23T11:04:05;32.30;54.20
31379;DHT22;61664;48.112;11.662;2022-07-23T11:09:26;31.60;54.30
31379;DHT22;61664;48.112;11.662;2022-07-23T11:15:14;31.10;56.40
31379;DHT22;61664;48.112;11.662;2022-07-23T11:20:23;30.60;55.10
31379;DHT22;61664;48.112;11.662;2022-07-23T11:22:56;30.40;54.50
31379;DHT22;61664;48.112;11.662;2022-07-23T11:27:51;30.00;56.60
31379;DHT22;61664;48.112;11.662;2022-07-23T11:33:15;29.70;53.50
31379;DHT22;61664;48.112;11.662;2022-07-23T11:35:50;29.60;56.80
31379;DHT22;61664;48.112;11.662;2022-07-23T11:38:31;29.50;54.70
31379;DHT22;61664;48.112;11.662;2022-07-23T11:40:59;29.30;56.10
31379;DHT22;61664;48.112;11.662;2022-07-23T11:43:26;29.20;58.30
31379;DHT22;61664;48.112;11.662;2022-07-23T11:45:57;29.10;57.80
31379;DHT22;61664;48.112;11.662;2022-07-23T11:48:27;29.00;57.10
31379;DHT22;61664;48.112;11.662;2022-07-23T11:50:57;28.90;56.60
31379;DHT22;61664;48.112;11.662;2022-07-23T11:53:29;28.80;56.50
31379;DHT22;61664;48.112;11.662;2022-07-23T11:56:08;28.70;55.00
31379;DHT22;61664;48.112;11.662;2022-07-23T11:58:38;28.60;54.60
31379;DHT22;61664;48.112;11.662;2022-07-23T12:01:06;28.50;56.10
31379;DHT22;61664;48.112;11.662;2022-07-23T12:03:51;28.50;56.20
31379;DHT22;61664;48.112;11.662;2022-07-23T12:06:18;28.40;53.70
31379;DHT22;61664;48.112;11.662;2022-07-23T12:08:46;28.30;56.40
31379;DHT22;61664;48.112;11.662;2022-07-23T12:11:13;28.30;56.30
31379;DHT22;61664;48.112;11.662;2022-07-23T12:13:40;28.20;56.30
31379;DHT22;61664;48.112;11.662;2022-07-23T12:16:08;28.20;56.30
31379;DHT22;61664;48.112;11.662;2022-07-23T12:18:35;28.20;56.00
31379;DHT22;61664;48.112;11.662;2022-07-23T12:21:04;28.20;56.20
31379;DHT22;61664;48.112;11.662;2022-07-23T12:23:33;28.10;56.30
31379;DHT22;61664;48.112;11.662;2022-07-23T12:26:02;28.10;56.60
31379;DHT22;61664;48.112;11.662;2022-07-23T12:28:33;28.10;56.40
31379;DHT22;61664;48.112;11.662;2022-07-23T12:31:02;28.00;55.50
31379;DHT22;61664;48.112;11.662;2022-07-23T12:33:42;28.00;56.80
31379;DHT22;61664;48.112;11.662;2022-07-23T12:36:10;28.00;56.10
31379;DHT22;61664;48.112;11.662;2022-07-23T12:38:43;28.00;56.50
31379;DHT22;61664;48.112;11.662;2022-07-23T12:41:15;28.00;54.80
31379;DHT22;61664;48.112;11.662;2022-07-23T12:43:44;28.00;56.50
31379;DHT22;61664;48.112;11.662;2022-07-23T12:46:15;27.90;56.50
31379;DHT22;61664;48.112;11.662;2022-07-23T12:51:19;27.90;55.80
31379;DHT22;61664;48.112;11.662;2022-07-23T12:53:54;27.90;56.50
31379;DHT22;61664;48.112;11.662;2022-07-23T12:56:31;28.00;56.50
31379;DHT22;61664;48.112;11.662;2022-07-23T13:01:32;27.90;55.40
31379;DHT22;61664;48.112;11.662;2022-07-23T13:04:09;27.90;57.10
31379;DHT22;61664;48.112;11.662;2022-07-23T13:06:44;27.90;55.30
31379;DHT22;61664;48.112;11.662;2022-07-23T13:09:27;27.80;56.90
31379;DHT22;61664;48.112;11.662;2022-07-23T13:11:59;27.90;56.20
31379;DHT22;61664;48.112;11.662;2022-07-23T13:14:27;27.90;57.40
31379;DHT22;61664;48.112;11.662;2022-07-23T13:16:55;27.90;57.60
31379;DHT22;61664;48.112;11.662;2022-07-23T13:19:25;28.00;57.20
31379;DHT22;61664;48.112;11.662;2022-07-23T13:21:53;28.00;57.20
31379;DHT22;61664;48.112;11.662;2022-07-23T13:24:21;28.10;57.30
31379;DHT22;61664;48.112;11.662;2022-07-23T13:26:48;28.20;57.10
31379;DHT22;61664;48.112;11.662;2022-07-23T13:29:18;28.30;56.70
31379;DHT22;61664;48.112;11.662;2022-07-23T13:31:46;28.30;56.40
31379;DHT22;61664;48.112;11.662;2022-07-23T13:34:14;28.40;56.10
31379;DHT22;61664;48.112;11.662;2022-07-23T13:36:42;28.40;55.90
31379;DHT22;61664;48.112;11.662;2022-07-23T13:39:10;28.40;55.70
31379;DHT22;61664;48.112;11.662;2022-07-23T13:41:41;28.40;55.50
31379;DHT22;61664;48.112;11.662;2022-07-23T13:44:28;28.30;55.40
31379;DHT22;61664;48.112;11.662;2022-07-23T13:46:55;28.30;55.60
31379;DHT22;61664;48.112;11.662;2022-07-23T13:49:21;28.20;55.60
31379;DHT22;61664;48.112;11.662;2022-07-23T13:51:48;28.20;55.90
31379;DHT22;61664;48.112;11.662;2022-07-23T13:54:15;28.20;56.00
31379;DHT22;61664;48.112;11.662;2022-07-23T13:56:42;28.10;55.90
31379;DHT22;61664;48.112;11.662;2022-07-23T13:59:09;28.20;55.90
31379;DHT22;61664;48.112;11.662;2022-07-23T14:01:37;28.20;55.70
31379;DHT22;61664;48.112;11.662;2022-07-23T14:04:24;28.20;55.50
31379;DHT22;61664;48.112;11.662;2022-07-23T14:06:52;28.10;55.20
31379;DHT22;61664;48.112;11.662;2022-07-23T14:09:20;28.10;54.90
31379;DHT22;61664;48.112;11.662;2022-07-23T14:11:51;28.00;54.90
31379;DHT22;61664;48.112;11.662;2022-07-23T14:14:18;28.00;55.00
31379;DHT22;61664;48.112;11.662;2022-07-23T14:16:46;27.90;54.90
31379;DHT22;61664;48.112;11.662;2022-07-23T14:19:13;27.80;55.40
31379;DHT22;61664;48.112;11.662;2022-07-23T14:21:39;27.70;55.90
31379;DHT22;61664;48.112;11.662;2022-07-23T14:24:07;27.60;56.20
31379;DHT22;61664;48.112;11.662;2022-07-23T14:26:34;27.50;56.30
31379;DHT22;61664;48.112;11.662;2022-07-23T14:29:01;27.40;56.40
31379;DHT22;61664;48.112;11.662;2022-07-23T14:31:29;27.30;57.00
31379;DHT22;61664;48.112;11.662;2022-07-23T14:33:56;27.30;57.10
31379;DHT22;61664;48.112;11.662;2022-07-23T14:36:23;27.30;57.30
31379;DHT22;61664;48.112;11.662;2022-07-23T14:38:50;27.20;57.20
31379;DHT22;61664;48.112;11.662;2022-07-23T14:41:17;27.20;57.40
31379;DHT22;61664;48.112;11.662;2022-07-23T14:43:52;27.20;57.40
31379;DHT22;61664;48.112;11.662;2022-07-23T14:46:19;27.20;57.40
31379;DHT22;61664;48.112;11.662;2022-07-23T14:48:47;27.20;57.30
31379;DHT22;61664;48.112;11.662;2022-07-23T14:51:14;27.20;57.30
31379;DHT22;61664;48.112;11.662;2022-07-23T14:53:41;27.20;57.30
31379;DHT22;61664;48.112;11.662;2022-07-23T14:56:08;27.30;57.50
31379;DHT22;61664;48.112;11.662;2022-07-23T14:58:36;27.40;57.70
31379;DHT22;61664;48.112;11.662;2022-07-23T15:01:03;27.50;58.30
31379;DHT22;61664;48.112;11.662;2022-07-23T15:03:30;27.70;59.30
31379;DHT22;61664;48.112;11.662;2022-07-23T15:06:08;28.00;59.00
31379;DHT22;61664;48.112;11.662;2022-07-23T15:08:35;28.30;59.00
31379;DHT22;61664;48.112;11.662;2022-07-23T15:11:02;28.60;58.30
31379;DHT22;61664;48.112;11.662;2022-07-23T15:13:29;28.90;57.50
31379;DHT22;61664;48.112;11.662;2022-07-23T15:15:57;29.10;56.70
31379;DHT22;61664;48.112;11.662;2022-07-23T15:18:24;29.20;56.30
31379;DHT22;61664;48.112;11.662;2022-07-23T15:20:51;29.30;55.90
31379;DHT22;61664;48.112;11.662;2022-07-23T15:23:18;29.40;55.60
31379;DHT22;61664;48.112;11.662;2022-07-23T15:25:46;29.50;55.60
31379;DHT22;61664;48.112;11.662;2022-07-23T15:28:17;29.60;55.50
31379;DHT22;61664;48.112;11.662;2022-07-23T15:30:48;29.70;56.10
31379;DHT22;61664;48.112;11.662;2022-07-23T15:33:16;29.90;56.40
31379;DHT22;61664;48.112;11.662;2022-07-23T15:35:48;30.10;56.20
31379;DHT22;61664;48.112;11.662;2022-07-23T15:38:15;30.30;55.60
31379;DHT22;61664;48.112;11.662;2022-07-23T15:40:53;30.50;55.40
31379;DHT22;61664;48.112;11.662;2022-07-23T15:43:22;30.60;54.90
31379;DHT22;61664;48.112;11.662;2022-07-23T15:45:52;30.70;55.00
31379;DHT22;61664;48.112;11.662;2022-07-23T15:48:20;30.80;55.10
31379;DHT22;61664;48.112;11.662;2022-07-23T15:50:48;30.90;55.10
31379;DHT22;61664;48.112;11.662;2022-07-23T15:53:16;31.10;55.20
31379;DHT22;61664;48.112;11.662;2022-07-23T15:56:03;31.40;55.30
31379;DHT22;61664;48.112;11.662;2022-07-23T15:58:31;31.70;55.70
31379;DHT22;61664;48.112;11.662;2022-07-23T16:00:58;32.10;56.40